createdAt,value
2023-01-27T00:01:53.806Z,74.95
2023-01-27T00:04:27.324Z,74.98
2023-01-27T00:07:00.804Z,74.92
2023-01-27T00:09:34.450Z,74.84
2023-01-27T00:12:36.937Z,74.85
2023-01-27T00:15:13.314Z,74.82
2023-01-27T00:17:46.829Z,74.53
2023-01-27T00:20:24.443Z,74.60
2023-01-27T00:23:14.084Z,74.69
2023-01-27T00:25:49.793Z,74.68
2023-01-27T00:28:25.564Z,74.61
2023-01-27T00:30:59.620Z,74.66
2023-01-27T00:33:34.260Z,74.60
2023-01-27T00:36:09.731Z,74.54
2023-01-27T00:38:44.723Z,74.60
2023-01-27T00:41:20.673Z,74.54
2023-01-27T00:43:55.244Z,74.40
2023-01-27T00:46:28.858Z,74.42
2023-01-27T00:49:02.706Z,74.38
2023-01-27T00:51:37.045Z,74.51
2023-01-27T00:54:10.606Z,74.46
2023-01-27T00:56:45.089Z,74.28
2023-01-27T00:59:18.753Z,74.31
2023-01-27T01:01:52.239Z,74.30
2023-01-27T01:04:25.655Z,74.41
2023-01-27T01:06:59.306Z,74.35
2023-01-27T01:09:32.839Z,74.37
2023-01-27T01:12:06.818Z,74.33
2023-01-27T01:14:40.862Z,74.41
2023-01-27T01:17:14.375Z,74.54
2023-01-27T01:19:47.660Z,74.61
2023-01-27T01:22:21.194Z,74.66
2023-01-27T01:24:54.607Z,74.71
2023-01-27T01:27:28.052Z,74.78
2023-01-27T01:30:02.082Z,74.93
2023-01-27T01:32:35.897Z,74.99
2023-01-27T01:35:11.113Z,75.08
2023-01-27T01:37:46.257Z,75.12
2023-01-27T01:40:20.623Z,75.05
2023-01-27T01:43:02.095Z,75.04
2023-01-27T01:45:51.176Z,75.05
2023-01-27T01:48:35.115Z,75.03
2023-01-27T01:51:13.624Z,74.98
2023-01-27T01:53:51.117Z,75.09
2023-01-27T01:56:27.913Z,74.97
2023-01-27T01:59:04.219Z,74.98
2023-01-27T02:01:38.061Z,75.01
2023-01-27T02:04:14.442Z,75.12
2023-01-27T02:06:52.885Z,75.23
2023-01-27T02:09:28.913Z,75.13
2023-01-27T02:12:02.551Z,75.17
2023-01-27T02:14:35.723Z,75.16
2023-01-27T02:17:13.191Z,75.19
2023-01-27T02:19:50.453Z,75.15
2023-01-27T02:22:27.945Z,75.15
2023-01-27T02:25:04.116Z,75.21
2023-01-27T02:27:37.274Z,75.19
2023-01-27T02:30:13.106Z,75.19
2023-01-27T02:32:46.613Z,75.17
2023-01-27T02:35:24.163Z,75.09
2023-01-27T02:37:59.137Z,75.13
2023-01-27T02:40:33.952Z,75.21
2023-01-27T02:43:07.877Z,75.19
2023-01-27T02:45:42.461Z,75.09
2023-01-27T02:48:16.067Z,75.11
2023-01-27T02:50:50.485Z,75.17
2023-01-27T02:53:27.204Z,75.05
2023-01-27T02:56:02.062Z,75.11
2023-01-27T02:58:35.435Z,75.14
2023-01-27T03:01:13.133Z,75.17
2023-01-27T03:03:47.639Z,75.28
2023-01-27T03:06:23.381Z,75.31
2023-01-27T03:08:56.479Z,75.30
2023-01-27T03:11:47.440Z,75.20
2023-01-27T03:14:21.472Z,75.29
2023-01-27T03:17:12.350Z,75.34
2023-01-27T03:19:47.725Z,75.25
2023-01-27T03:22:21.479Z,75.30
2023-01-27T03:24:55.074Z,75.36
2023-01-27T03:27:28.259Z,75.25
2023-01-27T03:30:03.715Z,75.30
2023-01-27T03:32:37.496Z,75.32
2023-01-27T03:35:23.159Z,75.32
2023-01-27T03:38:14.607Z,75.30
2023-01-27T03:41:06.063Z,75.24
2023-01-27T03:43:57.398Z,75.25
2023-01-27T03:46:32.992Z,75.27
2023-01-27T03:49:06.346Z,75.43
2023-01-27T03:51:39.887Z,75.42
2023-01-27T03:54:13.470Z,75.34
2023-01-27T03:56:48.169Z,75.37
2023-01-27T03:59:22.591Z,75.28
2023-01-27T04:02:13.368Z,75.24
2023-01-27T04:05:04.758Z,75.35
2023-01-27T04:07:39.088Z,75.38
2023-01-27T04:10:13.971Z,75.43
2023-01-27T04:12:49.225Z,75.42
2023-01-27T04:15:22.639Z,75.30
2023-01-27T04:17:56.101Z,75.19
2023-01-27T04:20:29.835Z,75.32
2023-01-27T04:23:03.463Z,75.33
2023-01-27T04:25:37.028Z,75.32
2023-01-27T04:28:12.445Z,75.35
2023-01-27T04:30:46.219Z,75.36
2023-01-27T04:33:19.775Z,75.31
2023-01-27T04:35:53.160Z,75.17
2023-01-27T04:38:26.301Z,75.20
2023-01-27T04:40:59.414Z,75.22
2023-01-27T04:43:32.750Z,75.29
2023-01-27T04:46:06.526Z,75.16
2023-01-27T04:48:39.933Z,75.11
2023-01-27T04:51:13.466Z,75.27
2023-01-27T04:53:46.878Z,75.20
2023-01-27T04:56:24.725Z,75.26
2023-01-27T04:59:00.954Z,75.21
2023-01-27T05:01:34.668Z,75.06
2023-01-27T05:04:08.403Z,75.00
2023-01-27T05:06:41.953Z,75.09
2023-01-27T05:09:15.292Z,75.03
2023-01-27T05:11:48.741Z,75.04
2023-01-27T05:14:23.849Z,75.22
2023-01-27T05:16:57.137Z,75.21
2023-01-27T05:19:30.990Z,75.14
2023-01-27T05:22:04.406Z,75.05
2023-01-27T05:24:38.350Z,75.02
2023-01-27T05:27:12.134Z,74.98
2023-01-27T05:29:45.690Z,74.98
2023-01-27T05:32:19.068Z,74.79
2023-01-27T05:34:53.545Z,74.96
2023-01-27T05:37:30.970Z,74.93
2023-01-27T05:42:56.830Z,75.08
2023-01-27T05:45:30.242Z,75.25
2023-01-27T05:48:04.046Z,75.25
2023-01-27T05:50:37.634Z,75.29
2023-01-27T05:53:10.882Z,75.47
2023-01-27T05:55:46.207Z,75.50
2023-01-27T05:58:19.634Z,75.50
2023-01-27T06:00:53.261Z,75.56
2023-01-27T06:03:26.703Z,75.56
2023-01-27T06:06:00.289Z,75.52
2023-01-27T06:08:34.227Z,75.53
2023-01-27T06:11:08.370Z,75.60
2023-01-27T06:13:41.889Z,75.57
2023-01-27T06:16:18.224Z,75.52
2023-01-27T06:18:51.988Z,75.54
2023-01-27T06:21:25.459Z,75.48
2023-01-27T06:23:58.980Z,75.30
2023-01-27T06:26:32.492Z,75.37
2023-01-27T06:29:05.745Z,75.20
2023-01-27T06:31:39.611Z,75.09
2023-01-27T06:34:13.768Z,75.20
2023-01-27T06:36:47.378Z,75.15
2023-01-27T06:39:20.839Z,75.17
2023-01-27T06:41:54.011Z,75.08
2023-01-27T06:44:27.565Z,75.10
2023-01-27T06:47:02.517Z,74.98
2023-01-27T06:49:35.876Z,74.93
2023-01-27T06:52:09.190Z,74.98
2023-01-27T06:54:42.697Z,74.77
2023-01-27T06:57:16.610Z,74.76
2023-01-27T06:59:50.112Z,74.93
2023-01-27T07:02:24.486Z,74.95
2023-01-27T07:04:57.882Z,74.79
2023-01-27T07:07:31.418Z,74.96
2023-01-27T07:10:05.982Z,75.01
2023-01-27T07:12:39.808Z,75.04
2023-01-27T07:15:14.364Z,75.04
2023-01-27T07:17:47.790Z,74.94
2023-01-27T07:20:21.439Z,74.88
2023-01-27T07:22:54.494Z,74.84
2023-01-27T07:25:28.425Z,74.96
2023-01-27T07:28:03.209Z,74.69
2023-01-27T07:30:39.154Z,74.75
2023-01-27T07:33:15.478Z,74.76
2023-01-27T07:35:50.845Z,74.71
2023-01-27T07:38:24.520Z,74.66
2023-01-27T07:40:58.614Z,74.40
2023-01-27T07:43:31.969Z,74.42
2023-01-27T07:46:05.519Z,74.53
2023-01-27T07:48:38.923Z,74.41
2023-01-27T07:51:16.003Z,74.48
2023-01-27T07:53:49.738Z,74.37
2023-01-27T07:56:23.204Z,74.37
2023-01-27T07:58:56.998Z,74.30
2023-01-27T08:01:30.476Z,74.35
2023-01-27T08:04:03.703Z,73.87
2023-01-27T08:06:38.642Z,73.66
2023-01-27T08:09:12.013Z,73.63
2023-01-27T08:11:45.506Z,73.63
2023-01-27T08:14:18.993Z,73.55
2023-01-27T08:16:52.516Z,73.45
2023-01-27T08:19:25.706Z,73.15
2023-01-27T08:21:59.247Z,73.25
2023-01-27T08:24:32.670Z,73.13
2023-01-27T08:27:08.189Z,73.30
2023-01-27T08:29:41.078Z,72.97
2023-01-27T08:32:15.287Z,72.89
2023-01-27T08:34:48.866Z,72.85
2023-01-27T08:37:22.490Z,72.60
2023-01-27T08:39:55.930Z,72.25
2023-01-27T08:42:29.575Z,72.10
2023-01-27T08:45:03.980Z,72.20
2023-01-27T08:47:37.231Z,72.11
2023-01-27T08:50:13.293Z,71.99
2023-01-27T08:52:46.862Z,71.99
2023-01-27T08:55:20.393Z,71.96
2023-01-27T08:57:53.858Z,72.14
2023-01-27T09:00:28.016Z,71.78
2023-01-27T09:03:01.810Z,71.52
2023-01-27T09:05:36.790Z,71.65
2023-01-27T09:08:11.395Z,71.57
2023-01-27T09:10:44.737Z,71.29
2023-01-27T09:13:18.399Z,71.80
2023-01-27T09:15:53.789Z,71.68
2023-01-27T09:18:27.306Z,71.48
2023-01-27T09:21:02.182Z,71.53
2023-01-27T09:23:35.886Z,71.49
2023-01-27T09:26:09.500Z,71.33
2023-01-27T09:28:42.857Z,71.33
2023-01-27T09:31:16.501Z,71.23
2023-01-27T09:33:49.852Z,71.32
2023-01-27T09:36:23.650Z,71.63
2023-01-27T09:38:59.718Z,71.75
2023-01-27T09:41:47.485Z,71.61
2023-01-27T09:44:30.035Z,71.69
2023-01-27T09:47:11.821Z,71.63
2023-01-27T09:50:00.272Z,71.80
2023-01-27T09:52:48.127Z,71.65
2023-01-27T09:55:25.198Z,71.62
2023-01-27T09:58:02.220Z,71.43
2023-01-27T10:00:48.918Z,71.52
2023-01-27T10:03:43.746Z,71.52
2023-01-27T10:06:43.289Z,71.26
2023-01-27T10:09:49.096Z,71.33
2023-01-27T10:12:32.931Z,71.42
2023-01-27T10:15:13.857Z,71.32
2023-01-27T10:17:50.817Z,71.20
2023-01-27T10:20:29.521Z,71.37
2023-01-27T10:23:15.322Z,71.14
2023-01-27T10:25:55.348Z,71.02
2023-01-27T10:28:31.620Z,71.14
2023-01-27T10:31:07.408Z,71.22
2023-01-27T10:33:47.793Z,71.20
2023-01-27T10:36:26.134Z,71.12
2023-01-27T10:39:13.981Z,70.71
2023-01-27T10:41:52.064Z,70.75
2023-01-27T10:44:39.133Z,70.87
2023-01-27T10:47:16.006Z,70.89
2023-01-27T10:49:52.486Z,70.85
2023-01-27T10:52:29.527Z,70.62
2023-01-27T10:55:05.939Z,70.54
2023-01-27T10:57:42.123Z,70.49
2023-01-27T11:00:51.346Z,70.20
2023-01-27T11:02:58.187Z,70.37
2023-01-27T11:05:34.921Z,70.38
2023-01-27T11:08:28.547Z,70.67
2023-01-27T11:11:22.529Z,70.40
2023-01-27T11:14:00.845Z,70.46
2023-01-27T11:16:38.707Z,70.30
2023-01-27T11:19:18.116Z,70.37
2023-01-27T11:22:06.250Z,70.48
2023-01-27T11:24:32.052Z,70.53
2023-01-27T11:27:09.401Z,70.55
2023-01-27T11:29:45.968Z,70.40
2023-01-27T11:32:23.209Z,70.41
2023-01-27T11:35:01.766Z,70.13
2023-01-27T11:37:37.829Z,70.26
2023-01-27T11:40:20.029Z,70.65
2023-01-27T11:42:55.498Z,70.69
2023-01-27T11:45:30.666Z,70.48
2023-01-27T11:48:06.296Z,70.60
2023-01-27T11:50:39.945Z,70.63
2023-01-27T11:53:18.549Z,70.65
2023-01-27T11:55:55.092Z,70.57
2023-01-27T11:58:31.707Z,70.61
2023-01-27T12:01:08.371Z,70.74
2023-01-27T12:03:50.547Z,70.65
2023-01-27T12:06:29.646Z,70.52
2023-01-27T12:09:03.050Z,70.46
2023-01-27T12:11:36.468Z,70.56
2023-01-27T12:14:16.733Z,70.65
2023-01-27T12:16:53.092Z,70.33
2023-01-27T12:19:30.733Z,70.30
2023-01-27T12:22:06.234Z,70.36
2023-01-27T12:24:42.360Z,70.41
2023-01-27T12:27:21.067Z,70.51
2023-01-27T12:29:57.524Z,70.47
2023-01-27T12:32:37.537Z,70.50
2023-01-27T12:35:21.092Z,70.63
2023-01-27T12:37:59.448Z,70.41
2023-01-27T12:40:34.129Z,70.48
2023-01-27T12:43:14.285Z,70.50
2023-01-27T12:45:49.092Z,70.56
2023-01-27T12:48:24.059Z,70.59
2023-01-27T12:51:00.244Z,70.60
2023-01-27T12:53:33.770Z,70.67
2023-01-27T12:56:13.370Z,70.62
2023-01-27T12:58:49.800Z,70.77
2023-01-27T13:01:36.557Z,70.77
2023-01-27T13:04:13.627Z,70.57
2023-01-27T13:06:49.514Z,70.58
2023-01-27T13:09:33.572Z,70.55
2023-01-27T13:12:13.557Z,70.58
2023-01-27T13:14:48.544Z,70.52
2023-01-27T13:17:34.302Z,70.66
2023-01-27T13:20:17.716Z,70.65
2023-01-27T13:22:53.680Z,70.67
2023-01-27T13:25:30.273Z,70.76
2023-01-27T13:28:06.306Z,70.84
2023-01-27T13:30:42.745Z,70.87
2023-01-27T13:33:26.377Z,70.84
2023-01-27T13:36:03.681Z,70.92
2023-01-27T13:38:40.811Z,71.02
2023-01-27T13:41:18.618Z,71.01
2023-01-27T13:43:52.187Z,71.12
2023-01-27T13:46:28.598Z,71.08
2023-01-27T13:49:06.296Z,71.05
2023-01-27T13:51:39.940Z,71.09
2023-01-27T13:54:16.426Z,71.17
2023-01-27T13:56:57.660Z,71.23
2023-01-27T13:59:39.119Z,71.35
2023-01-27T14:02:46.278Z,71.55
2023-01-27T14:05:32.200Z,71.67
2023-01-27T14:08:13.295Z,71.75
2023-01-27T14:10:52.917Z,71.85
2023-01-27T14:13:32.394Z,72.04
2023-01-27T14:16:09.728Z,72.14
2023-01-27T14:18:46.172Z,72.25
2023-01-27T14:21:39.991Z,72.33
2023-01-27T14:24:03.520Z,72.41
2023-01-27T14:26:50.110Z,72.46
2023-01-27T14:29:30.589Z,72.51
2023-01-27T14:32:10.007Z,72.52
2023-01-27T14:34:56.007Z,72.64
2023-01-27T14:37:33.225Z,72.72
2023-01-27T14:40:18.869Z,72.76
2023-01-27T14:42:59.123Z,72.81
2023-01-27T14:45:35.798Z,72.78
2023-01-27T14:48:20.866Z,72.70
2023-01-27T14:50:57.757Z,72.62
2023-01-27T14:53:44.032Z,72.72
2023-01-27T14:56:21.104Z,72.86
2023-01-27T14:58:59.193Z,72.97
2023-01-27T15:01:38.403Z,73.01
2023-01-27T15:04:28.993Z,72.92
2023-01-27T15:07:06.983Z,72.99
2023-01-27T15:09:55.656Z,73.00
2023-01-27T15:12:44.372Z,73.03
2023-01-27T15:16:01.478Z,73.07
2023-01-27T15:18:40.558Z,73.26
2023-01-27T15:21:35.302Z,73.24
2023-01-27T15:27:21.682Z,73.48
2023-01-27T15:29:55.403Z,73.46
2023-01-27T15:32:37.725Z,73.46
2023-01-27T15:35:36.527Z,73.42
2023-01-27T15:38:34.684Z,73.39
2023-01-27T15:41:18.691Z,73.46
2023-01-27T15:44:08.914Z,73.57
2023-01-27T15:46:45.541Z,73.65
2023-01-27T15:49:23.149Z,73.72
2023-01-27T15:51:56.550Z,73.82
2023-01-27T15:54:32.460Z,73.71
2023-01-27T15:57:08.134Z,73.77
2023-01-27T15:59:58.510Z,73.80
2023-01-27T16:02:27.021Z,73.88
2023-01-27T16:05:09.882Z,73.92
2023-01-27T16:07:44.018Z,74.01
2023-01-27T16:10:21.027Z,74.08
2023-01-27T16:12:59.030Z,74.17
2023-01-27T16:15:38.661Z,74.21
2023-01-27T16:18:43.702Z,74.21
2023-01-27T16:21:30.652Z,74.24
2023-01-27T16:24:07.367Z,74.30
2023-01-27T16:26:43.762Z,74.31
2023-01-27T16:29:25.525Z,74.43
2023-01-27T16:32:02.744Z,74.41
2023-01-27T16:34:42.518Z,74.43
2023-01-27T16:37:25.785Z,74.44
2023-01-27T16:40:03.145Z,74.60
2023-01-27T16:42:39.135Z,74.68
2023-01-27T16:45:20.685Z,74.73
2023-01-27T16:47:56.871Z,74.84
2023-01-27T16:50:38.522Z,74.86
2023-01-27T16:53:18.701Z,74.88
2023-01-27T16:56:03.464Z,74.94
2023-01-27T16:58:46.011Z,74.91
2023-01-27T17:01:19.408Z,74.93
2023-01-27T17:04:17.961Z,74.96
2023-01-27T17:06:43.328Z,74.95
2023-01-27T17:09:26.990Z,75.01
2023-01-27T17:12:02.273Z,74.99
2023-01-27T17:14:42.477Z,74.97
2023-01-27T17:17:23.769Z,74.93
2023-01-27T17:20:00.431Z,74.94
2023-01-27T17:22:39.610Z,74.95
2023-01-27T17:25:19.055Z,74.93
2023-01-27T17:27:55.957Z,74.91
2023-01-27T17:30:37.462Z,74.91
2023-01-27T17:33:16.610Z,74.96
2023-01-27T17:35:55.655Z,74.97
2023-01-27T17:38:37.146Z,75.04
2023-01-27T17:41:36.020Z,75.09
2023-01-27T17:44:19.229Z,75.16
2023-01-27T17:46:54.971Z,74.99
2023-01-27T17:49:30.332Z,74.93
2023-01-27T17:52:05.321Z,74.93
2023-01-27T17:54:41.739Z,74.90
2023-01-27T17:57:20.981Z,74.92
2023-01-27T17:59:59.680Z,74.91
2023-01-27T18:02:36.189Z,74.97
2023-01-27T18:05:16.872Z,75.05
2023-01-27T18:07:51.051Z,75.18
2023-01-27T18:10:29.931Z,75.12
2023-01-27T18:13:07.851Z,75.15
2023-01-27T18:15:47.707Z,75.24
2023-01-27T18:18:28.020Z,75.29
2023-01-27T18:21:16.639Z,75.33
2023-01-27T18:23:51.726Z,75.44
2023-01-27T18:29:17.705Z,75.40
2023-01-27T18:31:55.067Z,75.40
2023-01-27T18:34:31.227Z,75.44
2023-01-27T18:37:11.914Z,75.46
2023-01-27T18:39:46.427Z,75.41
2023-01-27T18:42:22.555Z,75.37
2023-01-27T18:44:57.467Z,75.42
2023-01-27T18:47:34.513Z,75.40
2023-01-27T18:50:19.812Z,75.40
2023-01-27T18:52:54.453Z,75.40
2023-01-27T18:55:30.095Z,75.40
2023-01-27T18:58:04.330Z,75.42
2023-01-27T19:00:40.654Z,75.43
2023-01-27T19:03:19.657Z,75.43
2023-01-27T19:05:54.027Z,75.42
2023-01-27T19:08:28.260Z,75.44
2023-01-27T19:11:01.921Z,75.54
2023-01-27T19:13:35.863Z,75.57
2023-01-27T19:16:14.539Z,75.62
2023-01-27T19:18:48.899Z,75.70
2023-01-27T19:21:22.774Z,75.78
2023-01-27T19:23:56.422Z,75.79
2023-01-27T19:26:31.058Z,75.84
2023-01-27T19:29:05.372Z,75.85
2023-01-27T19:31:38.934Z,75.86
2023-01-27T19:34:15.583Z,75.88
2023-01-27T19:36:49.080Z,75.87
2023-01-27T19:39:23.099Z,75.85
2023-01-27T19:41:56.586Z,75.79
2023-01-27T19:44:30.691Z,75.76
2023-01-27T19:47:05.225Z,75.82
2023-01-27T19:49:38.692Z,75.79
2023-01-27T19:52:12.109Z,75.75
2023-01-27T19:54:45.658Z,75.77
2023-01-27T19:57:20.307Z,75.63
2023-01-27T19:59:53.718Z,75.58
2023-01-27T20:02:27.121Z,75.61
2023-01-27T20:05:00.521Z,75.56
2023-01-27T20:07:33.973Z,75.49
2023-01-27T20:10:09.033Z,75.46
2023-01-27T20:12:42.531Z,75.51
2023-01-27T20:15:19.894Z,75.53
2023-01-27T20:17:53.729Z,75.57
2023-01-27T20:20:28.005Z,75.55
2023-01-27T20:23:01.265Z,75.59
2023-01-27T20:25:35.053Z,75.61
2023-01-27T20:28:09.125Z,75.67
2023-01-27T20:30:44.244Z,75.77
2023-01-27T20:33:17.655Z,75.83
2023-01-27T20:35:51.073Z,75.81
2023-01-27T20:38:25.086Z,75.83
2023-01-27T20:40:58.456Z,75.76
2023-01-27T20:43:35.820Z,75.67
2023-01-27T20:46:08.490Z,75.57
2023-01-27T20:48:41.596Z,75.47
2023-01-27T20:51:17.331Z,75.32
2023-01-27T20:53:50.533Z,75.19
2023-01-27T20:56:25.479Z,75.16
2023-01-27T20:58:59.039Z,75.17
2023-01-27T21:01:33.566Z,75.17
2023-01-27T21:04:06.861Z,75.18
2023-01-27T21:06:40.578Z,75.13
2023-01-27T21:09:14.233Z,75.13
2023-01-27T21:11:47.786Z,75.20
2023-01-27T21:14:21.105Z,75.17
2023-01-27T21:16:54.724Z,75.13
2023-01-27T21:19:28.081Z,75.04
2023-01-27T21:22:01.611Z,75.09
2023-01-27T21:24:36.998Z,75.11
2023-01-27T21:27:10.104Z,75.14
2023-01-27T21:29:44.182Z,75.17
2023-01-27T21:32:17.987Z,75.18
2023-01-27T21:34:51.651Z,75.13
2023-01-27T21:37:25.192Z,75.10
2023-01-27T21:39:58.551Z,75.17
2023-01-27T21:42:49.767Z,75.19
2023-01-27T21:45:24.233Z,75.28
2023-01-27T21:47:57.468Z,75.23
2023-01-27T21:50:31.102Z,75.29
2023-01-27T21:53:05.940Z,75.25
2023-01-27T21:55:39.526Z,75.24
2023-01-27T21:58:13.118Z,75.27
2023-01-27T22:00:46.553Z,75.22
2023-01-27T22:03:21.562Z,75.25
2023-01-27T22:05:55.141Z,75.23
2023-01-27T22:08:28.682Z,75.26
2023-01-27T22:11:06.011Z,75.24
2023-01-27T22:13:39.890Z,75.23
2023-01-27T22:16:16.362Z,75.29
2023-01-27T22:18:49.855Z,75.27
2023-01-27T22:21:23.196Z,75.27
2023-01-27T22:23:56.508Z,75.35
2023-01-27T22:26:30.112Z,75.31
2023-01-27T22:29:03.585Z,75.26
2023-01-27T22:31:39.724Z,75.33
2023-01-27T22:34:13.484Z,75.37
2023-01-27T22:36:48.467Z,75.25
2023-01-27T22:39:23.690Z,75.31
2023-01-27T22:41:57.433Z,75.34
2023-01-27T22:44:30.798Z,75.27
2023-01-27T22:47:04.296Z,75.25
2023-01-27T22:49:37.710Z,75.24
2023-01-27T22:52:11.019Z,75.24
2023-01-27T22:54:44.182Z,75.23
2023-01-27T22:57:17.614Z,75.25
2023-01-27T22:59:50.989Z,75.24
2023-01-27T23:02:26.290Z,75.21
2023-01-27T23:05:00.120Z,75.21
2023-01-27T23:07:33.754Z,75.09
2023-01-27T23:10:09.274Z,75.13
2023-01-27T23:12:43.510Z,75.14
2023-01-27T23:15:17.484Z,75.14
2023-01-27T23:17:51.540Z,75.15
2023-01-27T23:20:25.259Z,75.16
2023-01-27T23:22:58.591Z,75.12
2023-01-27T23:25:32.082Z,75.10
2023-01-27T23:28:05.657Z,75.03
2023-01-27T23:30:39.186Z,75.01
2023-01-27T23:33:13.339Z,74.96
2023-01-27T23:35:47.663Z,75.04
2023-01-27T23:38:32.105Z,75.07
2023-01-27T23:40:56.304Z,75.15
2023-01-27T23:43:31.076Z,75.06
2023-01-27T23:46:04.500Z,75.10
2023-01-27T23:48:37.919Z,75.01
2023-01-27T23:51:14.776Z,75.10
2023-01-27T23:53:48.283Z,75.10
2023-01-27T23:56:22.832Z,75.02
2023-01-27T23:58:56.608Z,75.10
